sensor_id;sensor_type;location;lat;lon;timestamp;P1;durP1;ratioP1;P2;durP2;ratioP2
25153;SDS011;47555;51.038;6.280;2023-03-11T00:00:07;3.90;;;1.90;;
25153;SDS011;47555;51.038;6.280;2023-03-11T00:02:37;6.38;;;1.70;;
25153;SDS011;47555;51.038;6.280;2023-03-11T00:05:06;6.53;;;1.98;;
25153;SDS011;47555;51.038;6.280;2023-03-11T00:07:32;4.32;;;1.85;;
25153;SDS011;47555;51.038;6.280;2023-03-11T00:09:58;2.70;;;1.60;;
25153;SDS011;47555;51.038;6.280;2023-03-11T00:12:24;5.20;;;2.25;;
25153;SDS011;47555;51.038;6.280;2023-03-11T00:14:49;5.10;;;1.90;;
25153;SDS011;47555;51.038;6.280;2023-03-11T00:17:15;6.82;;;2.08;;
25153;SDS011;47555;51.038;6.280;2023-03-11T00:19:41;8.45;;;2.05;;
25153;SDS011;47555;51.038;6.280;2023-03-11T00:22:06;5.25;;;1.65;;
25153;SDS011;47555;51.038;6.280;2023-03-11T00:24:33;6.10;;;1.95;;
25153;SDS011;47555;51.038;6.280;2023-03-11T00:26:58;6.75;;;1.50;;
25153;SDS011;47555;51.038;6.280;2023-03-11T00:29:24;3.05;;;1.50;;
25153;SDS011;47555;51.038;6.280;2023-03-11T00:31:50;4.20;;;1.40;;
25153;SDS011;47555;51.038;6.280;2023-03-11T00:34:15;6.20;;;1.50;;
25153;SDS011;47555;51.038;6.280;2023-03-11T00:36:41;4.32;;;1.85;;
25153;SDS011;47555;51.038;6.280;2023-03-11T00:39:06;4.18;;;1.80;;
25153;SDS011;47555;51.038;6.280;2023-03-11T00:41:32;6.13;;;1.42;;
25153;SDS011;47555;51.038;6.280;2023-03-11T00:43:58;5.57;;;1.67;;
25153;SDS011;47555;51.038;6.280;2023-03-11T00:46:24;2.47;;;1.48;;
25153;SDS011;47555;51.038;6.280;2023-03-11T00:48:50;4.60;;;1.80;;
25153;SDS011;47555;51.038;6.280;2023-03-11T00:51:16;6.15;;;1.92;;
25153;SDS011;47555;51.038;6.280;2023-03-11T00:53:42;6.63;;;1.88;;
25153;SDS011;47555;51.038;6.280;2023-03-11T00:56:11;3.58;;;1.67;;
25153;SDS011;47555;51.038;6.280;2023-03-11T00:58:38;5.22;;;2.30;;
25153;SDS011;47555;51.038;6.280;2023-03-11T01:01:12;2.95;;;1.58;;
25153;SDS011;47555;51.038;6.280;2023-03-11T01:03:42;6.15;;;1.38;;
25153;SDS011;47555;51.038;6.280;2023-03-11T01:06:08;12.80;;;2.05;;
25153;SDS011;47555;51.038;6.280;2023-03-11T01:08:34;5.72;;;1.52;;
25153;SDS011;47555;51.038;6.280;2023-03-11T01:10:59;4.50;;;1.70;;
25153;SDS011;47555;51.038;6.280;2023-03-11T01:13:26;2.55;;;1.33;;
25153;SDS011;47555;51.038;6.280;2023-03-11T01:15:53;4.53;;;2.15;;
25153;SDS011;47555;51.038;6.280;2023-03-11T01:18:19;4.22;;;1.60;;
25153;SDS011;47555;51.038;6.280;2023-03-11T01:20:45;6.15;;;1.45;;
25153;SDS011;47555;51.038;6.280;2023-03-11T01:23:11;9.35;;;1.85;;
25153;SDS011;47555;51.038;6.280;2023-03-11T01:25:38;4.82;;;1.75;;
25153;SDS011;47555;51.038;6.280;2023-03-11T01:28:04;3.30;;;1.90;;
25153;SDS011;47555;51.038;6.280;2023-03-11T01:30:32;4.85;;;1.70;;
25153;SDS011;47555;51.038;6.280;2023-03-11T01:32:59;2.15;;;1.42;;
25153;SDS011;47555;51.038;6.280;2023-03-11T01:35:26;2.10;;;1.40;;
25153;SDS011;47555;51.038;6.280;2023-03-11T01:37:53;3.63;;;1.50;;
25153;SDS011;47555;51.038;6.280;2023-03-11T01:40:28;3.13;;;1.70;;
25153;SDS011;47555;51.038;6.280;2023-03-11T01:43:00;5.25;;;2.03;;
25153;SDS011;47555;51.038;6.280;2023-03-11T01:45:37;4.95;;;1.55;;
25153;SDS011;47555;51.038;6.280;2023-03-11T01:48:27;4.35;;;1.70;;
25153;SDS011;47555;51.038;6.280;2023-03-11T01:50:53;5.20;;;1.70;;
25153;SDS011;47555;51.038;6.280;2023-03-11T01:53:20;2.67;;;1.83;;
25153;SDS011;47555;51.038;6.280;2023-03-11T01:55:48;4.38;;;1.77;;
25153;SDS011;47555;51.038;6.280;2023-03-11T01:58:16;3.42;;;2.08;;
25153;SDS011;47555;51.038;6.280;2023-03-11T02:00:45;5.03;;;1.73;;
25153;SDS011;47555;51.038;6.280;2023-03-11T02:03:25;3.47;;;1.50;;
25153;SDS011;47555;51.038;6.280;2023-03-11T02:05:53;2.38;;;1.48;;
25153;SDS011;47555;51.038;6.280;2023-03-11T02:08:20;1.58;;;1.30;;
25153;SDS011;47555;51.038;6.280;2023-03-11T02:10:46;3.40;;;1.27;;
25153;SDS011;47555;51.038;6.280;2023-03-11T02:13:14;3.10;;;1.48;;
25153;SDS011;47555;51.038;6.280;2023-03-11T02:15:40;5.70;;;1.80;;
25153;SDS011;47555;51.038;6.280;2023-03-11T02:18:06;6.43;;;1.77;;
25153;SDS011;47555;51.038;6.280;2023-03-11T02:23:23;3.50;;;1.35;;
25153;SDS011;47555;51.038;6.280;2023-03-11T02:26:03;3.15;;;1.55;;
25153;SDS011;47555;51.038;6.280;2023-03-11T02:28:38;3.20;;;1.30;;
25153;SDS011;47555;51.038;6.280;2023-03-11T02:31:05;5.97;;;1.58;;
25153;SDS011;47555;51.038;6.280;2023-03-11T02:33:31;1.95;;;1.60;;
25153;SDS011;47555;51.038;6.280;2023-03-11T02:35:59;4.88;;;1.55;;
25153;SDS011;47555;51.038;6.280;2023-03-11T02:38:25;3.97;;;1.30;;
25153;SDS011;47555;51.038;6.280;2023-03-11T02:40:57;4.93;;;1.90;;
25153;SDS011;47555;51.038;6.280;2023-03-11T02:43:27;5.80;;;1.83;;
25153;SDS011;47555;51.038;6.280;2023-03-11T02:46:07;2.35;;;1.85;;
25153;SDS011;47555;51.038;6.280;2023-03-11T02:48:35;3.30;;;1.98;;
25153;SDS011;47555;51.038;6.280;2023-03-11T02:51:01;4.05;;;1.80;;
25153;SDS011;47555;51.038;6.280;2023-03-11T02:53:27;3.42;;;2.03;;
25153;SDS011;47555;51.038;6.280;2023-03-11T02:55:55;2.92;;;1.50;;
25153;SDS011;47555;51.038;6.280;2023-03-11T02:58:21;4.20;;;1.88;;
25153;SDS011;47555;51.038;6.280;2023-03-11T03:00:47;2.95;;;2.13;;
25153;SDS011;47555;51.038;6.280;2023-03-11T03:03:12;2.78;;;1.92;;
25153;SDS011;47555;51.038;6.280;2023-03-11T03:05:38;5.60;;;2.00;;
25153;SDS011;47555;51.038;6.280;2023-03-11T03:08:03;3.55;;;2.22;;
25153;SDS011;47555;51.038;6.280;2023-03-11T03:10:29;3.40;;;2.35;;
25153;SDS011;47555;51.038;6.280;2023-03-11T03:12:55;3.65;;;1.80;;
25153;SDS011;47555;51.038;6.280;2023-03-11T03:15:20;3.75;;;2.20;;
25153;SDS011;47555;51.038;6.280;2023-03-11T03:17:46;3.00;;;1.77;;
25153;SDS011;47555;51.038;6.280;2023-03-11T03:20:12;3.72;;;2.00;;
25153;SDS011;47555;51.038;6.280;2023-03-11T03:22:39;5.30;;;1.95;;
25153;SDS011;47555;51.038;6.280;2023-03-11T03:25:06;5.82;;;2.55;;
25153;SDS011;47555;51.038;6.280;2023-03-11T03:27:32;3.80;;;1.92;;
25153;SDS011;47555;51.038;6.280;2023-03-11T03:29:58;3.90;;;1.90;;
25153;SDS011;47555;51.038;6.280;2023-03-11T03:32:24;4.63;;;2.05;;
25153;SDS011;47555;51.038;6.280;2023-03-11T03:34:49;4.20;;;2.13;;
25153;SDS011;47555;51.038;6.280;2023-03-11T03:37:15;3.22;;;2.00;;
25153;SDS011;47555;51.038;6.280;2023-03-11T03:39:40;5.40;;;1.95;;
25153;SDS011;47555;51.038;6.280;2023-03-11T03:42:06;5.82;;;2.63;;
25153;SDS011;47555;51.038;6.280;2023-03-11T03:44:31;5.05;;;1.85;;
25153;SDS011;47555;51.038;6.280;2023-03-11T03:46:57;3.90;;;2.22;;
25153;SDS011;47555;51.038;6.280;2023-03-11T03:49:23;4.20;;;2.00;;
25153;SDS011;47555;51.038;6.280;2023-03-11T03:51:49;2.53;;;1.80;;
25153;SDS011;47555;51.038;6.280;2023-03-11T03:54:14;7.18;;;2.15;;
25153;SDS011;47555;51.038;6.280;2023-03-11T03:56:40;2.67;;;1.73;;
25153;SDS011;47555;51.038;6.280;2023-03-11T03:59:05;4.55;;;2.20;;
25153;SDS011;47555;51.038;6.280;2023-03-11T04:08:02;5.50;;;1.70;;
25153;SDS011;47555;51.038;6.280;2023-03-11T04:10:28;2.53;;;2.25;;
25153;SDS011;47555;51.038;6.280;2023-03-11T04:12:53;2.47;;;1.70;;
25153;SDS011;47555;51.038;6.280;2023-03-11T04:15:19;9.57;;;2.40;;
25153;SDS011;47555;51.038;6.280;2023-03-11T04:17:44;4.20;;;2.20;;
25153;SDS011;47555;51.038;6.280;2023-03-11T04:20:10;7.10;;;2.85;;
25153;SDS011;47555;51.038;6.280;2023-03-11T04:22:36;4.57;;;2.33;;
25153;SDS011;47555;51.038;6.280;2023-03-11T04:25:02;5.15;;;2.67;;
25153;SDS011;47555;51.038;6.280;2023-03-11T04:27:28;6.07;;;2.50;;
25153;SDS011;47555;51.038;6.280;2023-03-11T04:29:53;3.55;;;2.42;;
25153;SDS011;47555;51.038;6.280;2023-03-11T04:32:19;4.18;;;2.17;;
25153;SDS011;47555;51.038;6.280;2023-03-11T04:34:47;10.30;;;2.30;;
25153;SDS011;47555;51.038;6.280;2023-03-11T04:37:13;6.07;;;2.65;;
25153;SDS011;47555;51.038;6.280;2023-03-11T04:39:38;8.98;;;2.95;;
25153;SDS011;47555;51.038;6.280;2023-03-11T04:42:04;4.50;;;2.53;;
25153;SDS011;47555;51.038;6.280;2023-03-11T04:44:30;5.03;;;2.67;;
25153;SDS011;47555;51.038;6.280;2023-03-11T04:46:55;5.72;;;2.42;;
25153;SDS011;47555;51.038;6.280;2023-03-11T04:49:21;5.47;;;2.35;;
25153;SDS011;47555;51.038;6.280;2023-03-11T04:51:46;3.75;;;2.05;;
25153;SDS011;47555;51.038;6.280;2023-03-11T04:54:12;3.63;;;2.25;;
25153;SDS011;47555;51.038;6.280;2023-03-11T04:56:37;7.47;;;2.28;;
25153;SDS011;47555;51.038;6.280;2023-03-11T04:59:03;6.35;;;2.65;;
25153;SDS011;47555;51.038;6.280;2023-03-11T05:01:28;4.10;;;2.33;;
25153;SDS011;47555;51.038;6.280;2023-03-11T05:03:54;6.03;;;2.60;;
25153;SDS011;47555;51.038;6.280;2023-03-11T05:06:19;5.35;;;2.40;;
25153;SDS011;47555;51.038;6.280;2023-03-11T05:08:45;5.80;;;2.50;;
25153;SDS011;47555;51.038;6.280;2023-03-11T05:11:10;4.25;;;2.58;;
25153;SDS011;47555;51.038;6.280;2023-03-11T05:13:36;7.60;;;2.63;;
25153;SDS011;47555;51.038;6.280;2023-03-11T05:16:01;4.65;;;2.60;;
25153;SDS011;47555;51.038;6.280;2023-03-11T05:18:27;4.53;;;2.67;;
25153;SDS011;47555;51.038;6.280;2023-03-11T05:20:54;6.63;;;3.08;;
25153;SDS011;47555;51.038;6.280;2023-03-11T05:23:20;3.22;;;2.90;;
25153;SDS011;47555;51.038;6.280;2023-03-11T05:25:46;3.50;;;2.38;;
25153;SDS011;47555;51.038;6.280;2023-03-11T05:28:11;3.63;;;2.35;;
25153;SDS011;47555;51.038;6.280;2023-03-11T05:30:37;5.70;;;2.50;;
25153;SDS011;47555;51.038;6.280;2023-03-11T05:33:02;3.80;;;2.67;;
25153;SDS011;47555;51.038;6.280;2023-03-11T05:35:28;3.20;;;2.55;;
25153;SDS011;47555;51.038;6.280;2023-03-11T05:37:54;2.70;;;2.50;;
25153;SDS011;47555;51.038;6.280;2023-03-11T05:40:22;6.70;;;2.85;;
25153;SDS011;47555;51.038;6.280;2023-03-11T05:42:48;4.63;;;2.70;;
25153;SDS011;47555;51.038;6.280;2023-03-11T05:45:14;6.80;;;3.25;;
25153;SDS011;47555;51.038;6.280;2023-03-11T05:47:39;5.68;;;2.85;;
25153;SDS011;47555;51.038;6.280;2023-03-11T05:50:06;5.90;;;2.78;;
25153;SDS011;47555;51.038;6.280;2023-03-11T05:52:33;6.95;;;3.13;;
25153;SDS011;47555;51.038;6.280;2023-03-11T05:54:58;6.10;;;3.55;;
25153;SDS011;47555;51.038;6.280;2023-03-11T05:57:24;4.97;;;3.10;;
25153;SDS011;47555;51.038;6.280;2023-03-11T05:59:50;8.00;;;3.20;;
25153;SDS011;47555;51.038;6.280;2023-03-11T06:02:16;6.50;;;3.15;;
25153;SDS011;47555;51.038;6.280;2023-03-11T06:04:42;7.10;;;3.28;;
25153;SDS011;47555;51.038;6.280;2023-03-11T06:07:07;5.10;;;3.65;;
25153;SDS011;47555;51.038;6.280;2023-03-11T06:09:33;8.07;;;4.30;;
25153;SDS011;47555;51.038;6.280;2023-03-11T06:12:02;6.18;;;3.90;;
25153;SDS011;47555;51.038;6.280;2023-03-11T06:14:28;7.32;;;3.63;;
25153;SDS011;47555;51.038;6.280;2023-03-11T06:16:55;7.88;;;4.00;;
25153;SDS011;47555;51.038;6.280;2023-03-11T06:19:22;5.85;;;3.58;;
25153;SDS011;47555;51.038;6.280;2023-03-11T06:21:47;5.57;;;3.50;;
25153;SDS011;47555;51.038;6.280;2023-03-11T06:24:13;8.52;;;3.47;;
25153;SDS011;47555;51.038;6.280;2023-03-11T06:26:38;5.45;;;3.38;;
25153;SDS011;47555;51.038;6.280;2023-03-11T06:29:04;5.55;;;3.53;;
25153;SDS011;47555;51.038;6.280;2023-03-11T06:31:31;8.70;;;4.03;;
25153;SDS011;47555;51.038;6.280;2023-03-11T06:33:57;5.00;;;3.20;;
25153;SDS011;47555;51.038;6.280;2023-03-11T06:36:23;6.32;;;4.25;;
25153;SDS011;47555;51.038;6.280;2023-03-11T06:38:52;7.40;;;3.50;;
25153;SDS011;47555;51.038;6.280;2023-03-11T06:41:18;6.85;;;3.78;;
25153;SDS011;47555;51.038;6.280;2023-03-11T06:43:44;9.35;;;3.72;;
25153;SDS011;47555;51.038;6.280;2023-03-11T06:46:10;6.75;;;4.15;;
25153;SDS011;47555;51.038;6.280;2023-03-11T06:48:39;7.03;;;4.72;;
25153;SDS011;47555;51.038;6.280;2023-03-11T06:51:04;10.68;;;5.20;;
25153;SDS011;47555;51.038;6.280;2023-03-11T06:53:30;9.32;;;5.28;;
25153;SDS011;47555;51.038;6.280;2023-03-11T06:55:59;11.23;;;5.55;;
25153;SDS011;47555;51.038;6.280;2023-03-11T06:58:28;9.48;;;6.13;;
25153;SDS011;47555;51.038;6.280;2023-03-11T07:00:54;6.18;;;5.00;;
25153;SDS011;47555;51.038;6.280;2023-03-11T07:03:23;7.28;;;5.43;;
25153;SDS011;47555;51.038;6.280;2023-03-11T07:05:49;8.43;;;5.60;;
25153;SDS011;47555;51.038;6.280;2023-03-11T07:08:15;10.07;;;5.93;;
25153;SDS011;47555;51.038;6.280;2023-03-11T07:10:41;8.02;;;5.53;;
25153;SDS011;47555;51.038;6.280;2023-03-11T07:13:06;10.45;;;5.25;;
25153;SDS011;47555;51.038;6.280;2023-03-11T07:15:32;10.77;;;5.70;;
25153;SDS011;47555;51.038;6.280;2023-03-11T07:17:57;11.98;;;5.75;;
25153;SDS011;47555;51.038;6.280;2023-03-11T07:20:23;11.93;;;6.43;;
25153;SDS011;47555;51.038;6.280;2023-03-11T07:22:48;9.43;;;5.85;;
25153;SDS011;47555;51.038;6.280;2023-03-11T07:25:14;10.48;;;5.88;;
25153;SDS011;47555;51.038;6.280;2023-03-11T07:27:39;10.55;;;5.47;;
25153;SDS011;47555;51.038;6.280;2023-03-11T07:30:05;9.85;;;6.15;;
25153;SDS011;47555;51.038;6.280;2023-03-11T07:32:31;12.00;;;6.40;;
25153;SDS011;47555;51.038;6.280;2023-03-11T07:34:57;14.93;;;6.45;;
25153;SDS011;47555;51.038;6.280;2023-03-11T07:37:22;10.65;;;6.00;;
25153;SDS011;47555;51.038;6.280;2023-03-11T07:39:48;13.00;;;5.55;;
25153;SDS011;47555;51.038;6.280;2023-03-11T07:42:13;10.68;;;5.20;;
25153;SDS011;47555;51.038;6.280;2023-03-11T07:44:39;8.90;;;5.50;;
25153;SDS011;47555;51.038;6.280;2023-03-11T07:47:04;10.48;;;5.10;;
25153;SDS011;47555;51.038;6.280;2023-03-11T07:49:30;14.05;;;5.13;;
25153;SDS011;47555;51.038;6.280;2023-03-11T07:51:56;10.48;;;5.25;;
25153;SDS011;47555;51.038;6.280;2023-03-11T07:54:22;7.47;;;5.07;;
25153;SDS011;47555;51.038;6.280;2023-03-11T07:56:47;9.88;;;5.18;;
25153;SDS011;47555;51.038;6.280;2023-03-11T07:59:13;6.25;;;4.10;;
25153;SDS011;47555;51.038;6.280;2023-03-11T08:01:38;7.53;;;4.97;;
25153;SDS011;47555;51.038;6.280;2023-03-11T08:04:06;10.82;;;4.68;;
25153;SDS011;47555;51.038;6.280;2023-03-11T08:06:33;9.05;;;5.03;;
25153;SDS011;47555;51.038;6.280;2023-03-11T08:09:00;13.63;;;4.97;;
25153;SDS011;47555;51.038;6.280;2023-03-11T08:11:28;11.52;;;5.07;;
25153;SDS011;47555;51.038;6.280;2023-03-11T08:13:54;10.15;;;4.43;;
25153;SDS011;47555;51.038;6.280;2023-03-11T08:16:21;8.75;;;4.35;;
25153;SDS011;47555;51.038;6.280;2023-03-11T08:18:48;8.40;;;4.32;;
25153;SDS011;47555;51.038;6.280;2023-03-11T08:21:16;9.02;;;5.20;;
25153;SDS011;47555;51.038;6.280;2023-03-11T08:23:43;6.85;;;4.53;;
25153;SDS011;47555;51.038;6.280;2023-03-11T08:26:13;8.70;;;4.97;;
25153;SDS011;47555;51.038;6.280;2023-03-11T08:28:40;6.65;;;4.22;;
25153;SDS011;47555;51.038;6.280;2023-03-11T08:31:13;7.97;;;3.90;;
25153;SDS011;47555;51.038;6.280;2023-03-11T08:33:40;10.05;;;4.57;;
25153;SDS011;47555;51.038;6.280;2023-03-11T08:36:07;11.18;;;4.88;;
25153;SDS011;47555;51.038;6.280;2023-03-11T08:38:32;11.93;;;4.45;;
25153;SDS011;47555;51.038;6.280;2023-03-11T08:40:58;7.80;;;4.50;;
25153;SDS011;47555;51.038;6.280;2023-03-11T08:43:24;8.57;;;4.15;;
25153;SDS011;47555;51.038;6.280;2023-03-11T08:45:50;6.65;;;3.60;;
25153;SDS011;47555;51.038;6.280;2023-03-11T08:48:15;11.05;;;4.10;;
25153;SDS011;47555;51.038;6.280;2023-03-11T08:50:41;7.85;;;3.78;;
25153;SDS011;47555;51.038;6.280;2023-03-11T08:53:07;10.15;;;3.90;;
25153;SDS011;47555;51.038;6.280;2023-03-11T08:55:33;11.38;;;4.22;;
25153;SDS011;47555;51.038;6.280;2023-03-11T08:57:58;7.85;;;3.85;;
25153;SDS011;47555;51.038;6.280;2023-03-11T09:00:24;8.10;;;4.00;;
25153;SDS011;47555;51.038;6.280;2023-03-11T09:02:50;6.32;;;3.47;;
25153;SDS011;47555;51.038;6.280;2023-03-11T09:05:15;7.88;;;3.88;;
25153;SDS011;47555;51.038;6.280;2023-03-11T09:07:41;7.15;;;3.83;;
25153;SDS011;47555;51.038;6.280;2023-03-11T09:10:07;7.95;;;4.03;;
25153;SDS011;47555;51.038;6.280;2023-03-11T09:12:33;6.35;;;3.85;;
25153;SDS011;47555;51.038;6.280;2023-03-11T09:14:58;4.72;;;3.50;;
25153;SDS011;47555;51.038;6.280;2023-03-11T09:17:24;8.90;;;3.53;;
25153;SDS011;47555;51.038;6.280;2023-03-11T09:19:49;6.75;;;3.55;;
25153;SDS011;47555;51.038;6.280;2023-03-11T09:22:15;7.22;;;2.80;;
25153;SDS011;47555;51.038;6.280;2023-03-11T09:24:41;3.08;;;2.30;;
25153;SDS011;47555;51.038;6.280;2023-03-11T09:27:07;4.35;;;2.10;;
25153;SDS011;47555;51.038;6.280;2023-03-11T09:29:32;4.25;;;2.90;;
25153;SDS011;47555;51.038;6.280;2023-03-11T09:31:58;6.97;;;2.83;;
25153;SDS011;47555;51.038;6.280;2023-03-11T09:34:23;4.93;;;2.53;;
25153;SDS011;47555;51.038;6.280;2023-03-11T09:36:49;5.03;;;2.30;;
25153;SDS011;47555;51.038;6.280;2023-03-11T09:39:14;5.00;;;2.30;;
25153;SDS011;47555;51.038;6.280;2023-03-11T09:41:53;3.88;;;2.28;;
25153;SDS011;47555;51.038;6.280;2023-03-11T09:50:05;3.85;;;2.10;;
25153;SDS011;47555;51.038;6.280;2023-03-11T10:01:03;3.20;;;1.38;;
25153;SDS011;47555;51.038;6.280;2023-03-11T10:03:56;2.50;;;1.40;;
25153;SDS011;47555;51.038;6.280;2023-03-11T10:06:27;5.47;;;1.48;;
25153;SDS011;47555;51.038;6.280;2023-03-11T10:09:15;3.88;;;1.60;;
25153;SDS011;47555;51.038;6.280;2023-03-11T10:15:13;1.80;;;1.35;;
25153;SDS011;47555;51.038;6.280;2023-03-11T10:23:26;2.67;;;1.60;;
25153;SDS011;47555;51.038;6.280;2023-03-11T10:26:17;1.95;;;1.20;;
25153;SDS011;47555;51.038;6.280;2023-03-11T10:28:50;2.28;;;1.15;;
25153;SDS011;47555;51.038;6.280;2023-03-11T10:31:28;1.65;;;1.02;;
25153;SDS011;47555;51.038;6.280;2023-03-11T10:33:59;1.50;;;1.10;;
25153;SDS011;47555;51.038;6.280;2023-03-11T10:36:31;2.47;;;1.33;;
25153;SDS011;47555;51.038;6.280;2023-03-11T10:39:18;1.65;;;1.08;;
25153;SDS011;47555;51.038;6.280;2023-03-11T10:41:57;3.95;;;1.00;;
25153;SDS011;47555;51.038;6.280;2023-03-11T10:44:36;1.00;;;0.90;;
25153;SDS011;47555;51.038;6.280;2023-03-11T10:47:03;2.75;;;0.98;;
25153;SDS011;47555;51.038;6.280;2023-03-11T10:49:29;2.22;;;1.08;;
25153;SDS011;47555;51.038;6.280;2023-03-11T10:51:55;2.20;;;0.90;;
25153;SDS011;47555;51.038;6.280;2023-03-11T10:54:23;4.47;;;1.40;;
25153;SDS011;47555;51.038;6.280;2023-03-11T10:57:00;3.10;;;1.05;;
25153;SDS011;47555;51.038;6.280;2023-03-11T10:59:44;1.75;;;1.10;;
25153;SDS011;47555;51.038;6.280;2023-03-11T11:02:28;2.58;;;1.20;;
25153;SDS011;47555;51.038;6.280;2023-03-11T11:05:06;2.08;;;0.90;;
25153;SDS011;47555;51.038;6.280;2023-03-11T11:07:43;2.20;;;0.90;;
25153;SDS011;47555;51.038;6.280;2023-03-11T11:12:58;2.72;;;1.30;;
25153;SDS011;47555;51.038;6.280;2023-03-11T11:17:55;3.53;;;1.20;;
25153;SDS011;47555;51.038;6.280;2023-03-11T11:20:23;1.60;;;1.10;;
25153;SDS011;47555;51.038;6.280;2023-03-11T11:22:51;4.20;;;1.10;;
25153;SDS011;47555;51.038;6.280;2023-03-11T11:25:23;5.53;;;1.50;;
25153;SDS011;47555;51.038;6.280;2023-03-11T11:27:53;3.58;;;0.93;;
25153;SDS011;47555;51.038;6.280;2023-03-11T11:30:20;2.47;;;1.10;;
25153;SDS011;47555;51.038;6.280;2023-03-11T11:32:47;2.35;;;1.15;;
25153;SDS011;47555;51.038;6.280;2023-03-11T11:35:15;2.42;;;1.02;;
25153;SDS011;47555;51.038;6.280;2023-03-11T11:37:42;1.30;;;1.00;;
25153;SDS011;47555;51.038;6.280;2023-03-11T11:40:37;1.08;;;0.90;;
25153;SDS011;47555;51.038;6.280;2023-03-11T11:45:36;4.63;;;1.42;;
25153;SDS011;47555;51.038;6.280;2023-03-11T11:48:07;2.88;;;1.10;;
25153;SDS011;47555;51.038;6.280;2023-03-11T11:50:43;3.20;;;1.20;;
25153;SDS011;47555;51.038;6.280;2023-03-11T11:55:49;3.47;;;1.13;;
25153;SDS011;47555;51.038;6.280;2023-03-11T11:58:17;1.77;;;1.08;;
25153;SDS011;47555;51.038;6.280;2023-03-11T12:01:28;1.48;;;1.10;;
25153;SDS011;47555;51.038;6.280;2023-03-11T12:09:02;4.50;;;1.13;;
25153;SDS011;47555;51.038;6.280;2023-03-11T12:17:49;1.63;;;1.20;;
25153;SDS011;47555;51.038;6.280;2023-03-11T12:23:13;2.63;;;1.20;;
25153;SDS011;47555;51.038;6.280;2023-03-11T12:31:37;2.20;;;1.02;;
25153;SDS011;47555;51.038;6.280;2023-03-11T12:34:05;1.88;;;1.27;;
25153;SDS011;47555;51.038;6.280;2023-03-11T12:39:06;1.95;;;1.30;;
25153;SDS011;47555;51.038;6.280;2023-03-11T12:41:43;3.45;;;1.42;;
25153;SDS011;47555;51.038;6.280;2023-03-11T12:49:27;3.97;;;1.25;;
25153;SDS011;47555;51.038;6.280;2023-03-11T12:52:04;3.55;;;1.45;;
25153;SDS011;47555;51.038;6.280;2023-03-11T12:54:36;3.50;;;1.55;;
25153;SDS011;47555;51.038;6.280;2023-03-11T12:59:54;2.92;;;1.40;;
25153;SDS011;47555;51.038;6.280;2023-03-11T13:05:26;3.92;;;1.60;;
25153;SDS011;47555;51.038;6.280;2023-03-11T13:08:15;4.97;;;1.30;;
25153;SDS011;47555;51.038;6.280;2023-03-11T13:10:44;4.55;;;1.40;;
25153;SDS011;47555;51.038;6.280;2023-03-11T13:18:36;2.58;;;1.40;;
25153;SDS011;47555;51.038;6.280;2023-03-11T13:21:03;1.92;;;1.30;;
25153;SDS011;47555;51.038;6.280;2023-03-11T13:23:49;3.25;;;1.50;;
25153;SDS011;47555;51.038;6.280;2023-03-11T13:26:20;7.20;;;1.23;;
25153;SDS011;47555;51.038;6.280;2023-03-11T13:28:50;2.38;;;1.40;;
25153;SDS011;47555;51.038;6.280;2023-03-11T13:31:40;3.55;;;1.60;;
25153;SDS011;47555;51.038;6.280;2023-03-11T13:34:33;4.20;;;1.35;;
25153;SDS011;47555;51.038;6.280;2023-03-11T13:37:23;3.42;;;1.40;;
25153;SDS011;47555;51.038;6.280;2023-03-11T13:45:16;2.45;;;1.90;;
25153;SDS011;47555;51.038;6.280;2023-03-11T13:47:53;4.32;;;1.52;;
25153;SDS011;47555;51.038;6.280;2023-03-11T13:50:25;1.75;;;1.10;;
25153;SDS011;47555;51.038;6.280;2023-03-11T13:53:13;2.80;;;1.40;;
25153;SDS011;47555;51.038;6.280;2023-03-11T13:55:49;2.88;;;1.20;;
25153;SDS011;47555;51.038;6.280;2023-03-11T13:58:17;2.70;;;1.23;;
25153;SDS011;47555;51.038;6.280;2023-03-11T14:00:50;3.40;;;1.92;;
25153;SDS011;47555;51.038;6.280;2023-03-11T14:03:21;1.83;;;1.10;;
25153;SDS011;47555;51.038;6.280;2023-03-11T14:05:50;2.65;;;1.35;;
25153;SDS011;47555;51.038;6.280;2023-03-11T14:08:29;3.00;;;1.45;;
25153;SDS011;47555;51.038;6.280;2023-03-11T14:13:42;3.92;;;1.40;;
25153;SDS011;47555;51.038;6.280;2023-03-11T14:16:28;2.80;;;1.58;;
25153;SDS011;47555;51.038;6.280;2023-03-11T14:21:46;2.88;;;1.20;;
25153;SDS011;47555;51.038;6.280;2023-03-11T14:26:43;1.58;;;1.17;;
25153;SDS011;47555;51.038;6.280;2023-03-11T14:29:14;4.65;;;1.40;;
25153;SDS011;47555;51.038;6.280;2023-03-11T14:31:43;2.80;;;1.77;;
25153;SDS011;47555;51.038;6.280;2023-03-11T14:39:04;3.08;;;1.13;;
25153;SDS011;47555;51.038;6.280;2023-03-11T14:41:30;3.25;;;1.20;;
25153;SDS011;47555;51.038;6.280;2023-03-11T14:43:55;4.57;;;1.48;;
25153;SDS011;47555;51.038;6.280;2023-03-11T14:46:23;2.85;;;1.00;;
25153;SDS011;47555;51.038;6.280;2023-03-11T14:48:52;2.10;;;1.30;;
25153;SDS011;47555;51.038;6.280;2023-03-11T14:51:20;2.22;;;1.25;;
25153;SDS011;47555;51.038;6.280;2023-03-11T14:53:57;1.50;;;1.23;;
25153;SDS011;47555;51.038;6.280;2023-03-11T14:56:45;2.80;;;1.30;;
25153;SDS011;47555;51.038;6.280;2023-03-11T14:59:21;2.28;;;1.33;;
25153;SDS011;47555;51.038;6.280;2023-03-11T15:01:50;1.20;;;1.10;;
25153;SDS011;47555;51.038;6.280;2023-03-11T15:04:29;2.40;;;1.30;;
25153;SDS011;47555;51.038;6.280;2023-03-11T15:07:02;1.05;;;0.98;;
25153;SDS011;47555;51.038;6.280;2023-03-11T15:09:28;1.58;;;1.20;;
25153;SDS011;47555;51.038;6.280;2023-03-11T15:11:56;3.33;;;1.17;;
25153;SDS011;47555;51.038;6.280;2023-03-11T15:14:33;1.80;;;1.10;;
25153;SDS011;47555;51.038;6.280;2023-03-11T15:19:41;2.88;;;1.20;;
25153;SDS011;47555;51.038;6.280;2023-03-11T15:22:40;1.48;;;1.30;;
25153;SDS011;47555;51.038;6.280;2023-03-11T15:25:01;3.83;;;1.92;;
25153;SDS011;47555;51.038;6.280;2023-03-11T15:27:38;2.53;;;1.17;;
25153;SDS011;47555;51.038;6.280;2023-03-11T15:30:14;3.50;;;1.15;;
25153;SDS011;47555;51.038;6.280;2023-03-11T15:32:46;2.75;;;1.20;;
25153;SDS011;47555;51.038;6.280;2023-03-11T15:35:17;1.23;;;1.13;;
25153;SDS011;47555;51.038;6.280;2023-03-11T15:37:43;1.30;;;1.15;;
25153;SDS011;47555;51.038;6.280;2023-03-11T15:40:19;3.75;;;1.35;;
25153;SDS011;47555;51.038;6.280;2023-03-11T15:42:46;2.58;;;1.27;;
25153;SDS011;47555;51.038;6.280;2023-03-11T15:45:14;4.32;;;1.30;;
25153;SDS011;47555;51.038;6.280;2023-03-11T15:47:41;1.80;;;1.20;;
25153;SDS011;47555;51.038;6.280;2023-03-11T15:52:45;2.10;;;1.30;;
25153;SDS011;47555;51.038;6.280;2023-03-11T15:55:12;2.30;;;1.50;;
25153;SDS011;47555;51.038;6.280;2023-03-11T15:57:37;1.85;;;1.30;;
25153;SDS011;47555;51.038;6.280;2023-03-11T16:00:05;2.00;;;1.30;;
25153;SDS011;47555;51.038;6.280;2023-03-11T16:02:39;4.03;;;1.33;;
25153;SDS011;47555;51.038;6.280;2023-03-11T16:05:10;3.83;;;1.60;;
25153;SDS011;47555;51.038;6.280;2023-03-11T16:07:41;2.13;;;1.30;;
25153;SDS011;47555;51.038;6.280;2023-03-11T16:10:08;1.90;;;1.40;;
25153;SDS011;47555;51.038;6.280;2023-03-11T16:12:34;3.80;;;1.42;;
25153;SDS011;47555;51.038;6.280;2023-03-11T16:15:00;1.48;;;1.38;;
25153;SDS011;47555;51.038;6.280;2023-03-11T16:17:25;3.72;;;1.35;;
25153;SDS011;47555;51.038;6.280;2023-03-11T16:19:51;2.25;;;1.30;;
25153;SDS011;47555;51.038;6.280;2023-03-11T16:22:17;4.50;;;1.55;;
25153;SDS011;47555;51.038;6.280;2023-03-11T16:24:46;3.85;;;1.33;;
25153;SDS011;47555;51.038;6.280;2023-03-11T16:27:14;3.45;;;1.30;;
25153;SDS011;47555;51.038;6.280;2023-03-11T16:29:42;2.08;;;1.50;;
25153;SDS011;47555;51.038;6.280;2023-03-11T16:32:08;2.92;;;1.30;;
25153;SDS011;47555;51.038;6.280;2023-03-11T16:34:34;2.08;;;1.13;;
25153;SDS011;47555;51.038;6.280;2023-03-11T16:37:00;2.70;;;1.35;;
25153;SDS011;47555;51.038;6.280;2023-03-11T16:39:26;3.50;;;1.38;;